createdAt,value
2022-11-28T00:00:52.384Z,101413.48
2022-11-28T00:04:06.821Z,101408.67
2022-11-28T00:07:14.349Z,101413.46
2022-11-28T00:10:19.958Z,101409.95
2022-11-28T00:13:25.481Z,101405.73
2022-11-28T00:16:31.027Z,101404.17
2022-11-28T00:19:36.354Z,101401.40
2022-11-28T00:22:42.644Z,101395.38
2022-11-28T00:25:47.972Z,101394.38
2022-11-28T00:28:53.627Z,101391.10
2022-11-28T00:31:59.145Z,101385.91
2022-11-28T00:35:04.699Z,101384.40
2022-11-28T00:38:11.383Z,101382.82
2022-11-28T00:41:17.794Z,101383.01
2022-11-28T00:44:23.250Z,101378.55
2022-11-28T00:47:28.725Z,101379.45
2022-11-28T00:50:34.108Z,101380.01
2022-11-28T00:53:40.498Z,101374.20
2022-11-28T00:56:45.950Z,101373.90
2022-11-28T00:59:51.255Z,101371.88
2022-11-28T01:02:56.731Z,101373.30
2022-11-28T01:06:02.188Z,101372.77
2022-11-28T01:09:08.328Z,101373.80
2022-11-28T01:12:15.075Z,101364.16
2022-11-28T01:15:20.542Z,101362.17
2022-11-28T01:18:25.806Z,101356.36
2022-11-28T01:21:32.806Z,101351.45
2022-11-28T01:24:38.300Z,101353.20
2022-11-28T01:27:43.632Z,101345.78
2022-11-28T01:30:49.102Z,101339.46
2022-11-28T01:33:54.551Z,101334.64
2022-11-28T01:37:01.014Z,101329.84
2022-11-28T01:40:07.365Z,101327.35
2022-11-28T01:43:12.737Z,101323.63
2022-11-28T01:46:18.530Z,101319.67
2022-11-28T01:49:25.702Z,101319.42
2022-11-28T01:52:31.229Z,101320.52
2022-11-28T01:55:39.066Z,101319.23
2022-11-28T01:58:46.732Z,101317.67
2022-11-28T02:01:53.483Z,101313.94
2022-11-28T02:04:59.352Z,101311.83
2022-11-28T02:08:04.862Z,101310.15
2022-11-28T02:11:21.785Z,101304.20
2022-11-28T02:14:35.394Z,101301.13
2022-11-28T02:17:48.969Z,101295.40
2022-11-28T02:21:05.079Z,101295.59
2022-11-28T02:24:29.763Z,101297.61
2022-11-28T02:27:42.282Z,101293.90
2022-11-28T02:30:53.520Z,101293.72
2022-11-28T02:34:00.909Z,101288.89
2022-11-28T02:37:08.677Z,101292.69
2022-11-28T02:40:18.163Z,101288.27
2022-11-28T02:43:25.129Z,101287.05
2022-11-28T02:46:35.186Z,101288.25
2022-11-28T02:49:45.456Z,101286.33
2022-11-28T02:52:52.488Z,101288.35
2022-11-28T02:55:58.363Z,101286.79
2022-11-28T02:59:03.721Z,101287.24
2022-11-28T03:02:14.792Z,101283.62
2022-11-28T03:05:22.107Z,101282.62
2022-11-28T03:08:46.151Z,101275.66
2022-11-28T03:11:59.659Z,101271.65
2022-11-28T03:15:07.451Z,101273.60
2022-11-28T03:18:18.894Z,101270.41
2022-11-28T03:21:27.073Z,101270.61
2022-11-28T03:24:35.965Z,101268.89
2022-11-28T03:27:44.895Z,101269.36
2022-11-28T03:30:51.926Z,101263.92
2022-11-28T03:33:59.433Z,101262.30
2022-11-28T03:37:07.312Z,101258.14
2022-11-28T03:40:16.956Z,101256.47
2022-11-28T03:43:26.766Z,101258.02
2022-11-28T03:46:36.168Z,101254.21
2022-11-28T03:49:43.505Z,101250.83
2022-11-28T03:52:50.570Z,101247.84
2022-11-28T03:56:01.579Z,101245.08
2022-11-28T03:59:10.785Z,101242.47
2022-11-28T04:02:19.878Z,101239.33
2022-11-28T04:05:29.135Z,101237.42
2022-11-28T04:08:38.313Z,101239.95
2022-11-28T04:11:46.189Z,101237.44
2022-11-28T04:14:54.793Z,101238.64
2022-11-28T04:18:02.343Z,101230.77
2022-11-28T04:21:11.291Z,101224.74
2022-11-28T04:24:19.056Z,101216.60
2022-11-28T04:27:28.698Z,101215.37
2022-11-28T04:30:36.823Z,101213.92
2022-11-28T04:33:44.326Z,101210.36
2022-11-28T04:36:50.664Z,101210.44
2022-11-28T04:39:57.253Z,101209.20
2022-11-28T04:43:03.689Z,101208.77
2022-11-28T04:46:11.911Z,101212.72
2022-11-28T04:49:18.755Z,101215.16
2022-11-28T04:52:26.692Z,101210.94
2022-11-28T04:55:36.255Z,101212.95
2022-11-28T04:58:43.555Z,101209.55
2022-11-28T05:01:49.712Z,101208.52
2022-11-28T05:04:55.974Z,101207.71
2022-11-28T05:08:01.352Z,101208.52
2022-11-28T05:11:06.746Z,101212.87
2022-11-28T05:14:12.089Z,101211.63
2022-11-28T05:17:17.619Z,101211.93
2022-11-28T05:20:23.060Z,101207.85
2022-11-28T05:23:28.409Z,101206.50
2022-11-28T05:26:35.399Z,101200.09
2022-11-28T05:29:46.872Z,101195.83
2022-11-28T05:32:56.928Z,101194.49
2022-11-28T05:36:11.250Z,101196.21
2022-11-28T05:39:19.448Z,101191.80
2022-11-28T05:42:25.954Z,101192.23
2022-11-28T05:45:34.008Z,101191.73
2022-11-28T05:48:39.538Z,101194.41
2022-11-28T05:51:44.927Z,101195.23
2022-11-28T05:54:50.285Z,101192.45
2022-11-28T05:57:55.721Z,101192.55
2022-11-28T06:01:03.952Z,101188.04
2022-11-28T06:04:09.386Z,101187.00
2022-11-28T06:07:14.880Z,101180.98
2022-11-28T06:10:22.577Z,101180.76
2022-11-28T06:13:27.992Z,101178.63
2022-11-28T06:16:33.384Z,101174.59
2022-11-28T06:19:39.012Z,101170.91
2022-11-28T06:22:44.366Z,101169.37
2022-11-28T06:25:49.633Z,101169.08
2022-11-28T06:28:56.506Z,101167.19
2022-11-28T06:32:01.865Z,101168.08
2022-11-28T06:35:08.039Z,101165.27
2022-11-28T06:38:14.538Z,101159.90
2022-11-28T06:41:20.766Z,101160.52
2022-11-28T06:44:26.249Z,101159.04
2022-11-28T06:47:31.823Z,101154.64
2022-11-28T06:50:37.138Z,101151.90
2022-11-28T06:53:45.726Z,101144.05
2022-11-28T06:56:51.295Z,101148.08
2022-11-28T06:59:56.774Z,101143.90
2022-11-28T07:03:02.063Z,101147.92
2022-11-28T07:06:07.903Z,101144.33
2022-11-28T07:09:13.576Z,101145.27
2022-11-28T07:12:18.978Z,101144.34
2022-11-28T07:15:24.430Z,101143.24
2022-11-28T07:18:30.070Z,101146.45
2022-11-28T07:21:35.666Z,101148.80
2022-11-28T07:24:41.319Z,101147.52
2022-11-28T07:27:46.703Z,101144.25
2022-11-28T07:30:58.854Z,101144.09
2022-11-28T07:34:04.431Z,101146.89
2022-11-28T07:37:12.062Z,101148.21
2022-11-28T07:40:18.585Z,101150.64
2022-11-28T07:43:24.618Z,101140.72
2022-11-28T07:46:32.599Z,101137.13
2022-11-28T07:49:38.054Z,101137.39
2022-11-28T07:52:43.332Z,101132.64
2022-11-28T07:55:48.742Z,101137.52
2022-11-28T07:58:54.474Z,101138.17
2022-11-28T08:02:01.179Z,101139.11
2022-11-28T08:05:07.211Z,101140.98
2022-11-28T08:08:12.626Z,101141.32
2022-11-28T08:11:19.094Z,101136.36
2022-11-28T08:14:24.605Z,101130.28
2022-11-28T08:17:38.412Z,101121.79
2022-11-28T08:20:43.729Z,101124.35
2022-11-28T08:23:48.918Z,101117.88
2022-11-28T08:26:55.730Z,101113.38
2022-11-28T08:30:01.042Z,101115.84
2022-11-28T08:33:07.588Z,101116.95
2022-11-28T08:36:14.468Z,101117.63
2022-11-28T08:39:24.860Z,101120.32
2022-11-28T08:42:30.596Z,101115.98
2022-11-28T08:45:39.756Z,101114.48
2022-11-28T08:48:46.109Z,101105.44
2022-11-28T08:51:52.854Z,101111.20
2022-11-28T08:54:58.121Z,101110.29
2022-11-28T08:58:03.407Z,101109.89
2022-11-28T09:01:15.875Z,101105.88
2022-11-28T09:04:24.995Z,101106.82
2022-11-28T09:07:30.734Z,101106.76
2022-11-28T09:10:37.956Z,101100.92
2022-11-28T09:13:43.580Z,101095.50
2022-11-28T09:16:50.590Z,101092.23
2022-11-28T09:19:55.898Z,101090.66
2022-11-28T09:23:01.329Z,101087.43
2022-11-28T09:26:10.381Z,101087.21
2022-11-28T09:29:15.550Z,101082.48
2022-11-28T09:32:23.660Z,101080.49
2022-11-28T09:35:28.968Z,101073.55
2022-11-28T09:38:34.563Z,101071.88
2022-11-28T09:41:51.803Z,101072.80
2022-11-28T09:44:59.663Z,101067.09
2022-11-28T09:48:21.040Z,101070.19
2022-11-28T09:51:29.390Z,101061.15
2022-11-28T09:54:43.033Z,101055.55
2022-11-28T09:57:49.904Z,101054.18
2022-11-28T10:00:58.957Z,101055.42
2022-11-28T10:04:07.678Z,101049.42
2022-11-28T10:07:16.786Z,101047.46
2022-11-28T10:10:32.624Z,101046.61
2022-11-28T10:14:06.770Z,101044.83
2022-11-28T10:17:17.464Z,101033.04
2022-11-28T10:20:24.449Z,101022.23
2022-11-28T10:23:32.211Z,101024.31
2022-11-28T10:26:39.801Z,101021.25
2022-11-28T10:29:50.222Z,101019.02
2022-11-28T10:33:00.280Z,101021.34
2022-11-28T10:36:05.986Z,101017.78
2022-11-28T10:39:12.947Z,101014.79
2022-11-28T10:42:21.696Z,101004.92
2022-11-28T10:45:30.332Z,101002.56
2022-11-28T10:48:41.478Z,101002.06
2022-11-28T10:51:49.923Z,100998.98
2022-11-28T10:55:05.329Z,100997.31
2022-11-28T10:58:15.212Z,100997.63
2022-11-28T11:01:20.954Z,100998.70
2022-11-28T11:04:27.845Z,100993.98
2022-11-28T11:07:34.423Z,100991.11
2022-11-28T11:10:42.670Z,100990.09
2022-11-28T11:14:02.046Z,100986.45
2022-11-28T11:17:07.629Z,100980.25
2022-11-28T11:20:31.118Z,100984.35
2022-11-28T11:23:39.562Z,100980.39
2022-11-28T11:26:47.125Z,100981.86
2022-11-28T11:29:52.499Z,100981.23
2022-11-28T11:32:59.942Z,100979.11
2022-11-28T11:36:07.279Z,100975.92
2022-11-28T11:39:20.856Z,100976.16
2022-11-28T11:42:27.182Z,100976.66
2022-11-28T11:45:35.342Z,100974.58
2022-11-28T11:48:41.780Z,100965.63
2022-11-28T11:51:56.649Z,100970.00
2022-11-28T11:55:04.885Z,100966.00
2022-11-28T11:58:14.110Z,100966.77
2022-11-28T12:01:21.619Z,100968.08
2022-11-28T12:04:44.992Z,100964.20
2022-11-28T12:07:56.628Z,100962.79
2022-11-28T12:11:09.523Z,100952.79
2022-11-28T12:14:25.617Z,100952.33
2022-11-28T12:17:51.483Z,100947.34
2022-11-28T12:21:06.892Z,100941.96
2022-11-28T12:24:14.277Z,100942.31
2022-11-28T12:27:27.507Z,100936.91
2022-11-28T12:30:43.457Z,100936.27
2022-11-28T12:33:53.718Z,100938.42
2022-11-28T12:37:03.812Z,100940.77
2022-11-28T12:40:14.564Z,100939.77
2022-11-28T12:43:25.202Z,100935.05
2022-11-28T12:46:35.329Z,100935.95
2022-11-28T12:49:47.823Z,100936.31
2022-11-28T12:52:58.144Z,100933.16
2022-11-28T12:56:07.943Z,100933.67
2022-11-28T12:59:19.920Z,100935.77
2022-11-28T13:02:35.128Z,100935.96
2022-11-28T13:05:52.549Z,100934.24
2022-11-28T13:09:03.480Z,100933.71
2022-11-28T13:12:22.395Z,100930.34
2022-11-28T13:15:38.535Z,100927.17
2022-11-28T13:18:49.918Z,100922.63
2022-11-28T13:21:58.813Z,100925.66
2022-11-28T13:25:10.875Z,100924.41
2022-11-28T13:28:20.540Z,100922.20
2022-11-28T13:31:29.228Z,100914.73
2022-11-28T13:34:35.607Z,100916.33
2022-11-28T13:41:35.171Z,100924.88
2022-11-28T13:44:43.625Z,100924.23
2022-11-28T13:47:49.464Z,100927.80
2022-11-28T13:51:06.655Z,100922.00
2022-11-28T13:54:45.440Z,100922.23
2022-11-28T13:57:53.424Z,100918.88
2022-11-28T14:01:10.086Z,100921.71
2022-11-28T14:04:16.647Z,100921.91
2022-11-28T14:07:26.730Z,100921.98
2022-11-28T14:10:36.365Z,100917.52
2022-11-28T14:13:52.494Z,100916.61
2022-11-28T14:17:10.424Z,100913.48
2022-11-28T14:20:24.560Z,100920.90
2022-11-28T14:23:34.991Z,100919.80
2022-11-28T14:26:43.159Z,100918.58
2022-11-28T14:29:50.428Z,100915.38
2022-11-28T14:32:59.487Z,100917.94
2022-11-28T14:36:24.754Z,100922.34
2022-11-28T14:39:35.367Z,100924.80
2022-11-28T14:46:32.148Z,100922.94
2022-11-28T14:49:40.473Z,100922.59
2022-11-28T14:52:48.002Z,100917.67
2022-11-28T14:55:53.599Z,100920.79
2022-11-28T14:59:02.291Z,100919.24
2022-11-28T15:02:19.326Z,100920.25
2022-11-28T15:05:30.395Z,100925.82
2022-11-28T15:08:50.159Z,100926.88
2022-11-28T15:12:11.553Z,100929.61
2022-11-28T15:15:19.233Z,100929.09
2022-11-28T15:18:26.077Z,100926.92
2022-11-28T15:21:33.329Z,100923.56
2022-11-28T15:24:39.456Z,100925.80
2022-11-28T15:27:46.262Z,100925.24
2022-11-28T15:30:53.828Z,100928.29
2022-11-28T15:34:00.361Z,100929.66
2022-11-28T15:37:16.961Z,100932.76
2022-11-28T15:40:27.557Z,100928.65
2022-11-28T15:43:32.992Z,100923.67
2022-11-28T15:46:38.565Z,100924.82
2022-11-28T15:49:44.297Z,100927.88
2022-11-28T15:52:56.763Z,100934.52
2022-11-28T15:56:12.741Z,100934.63
2022-11-28T15:59:18.300Z,100933.66
2022-11-28T16:02:27.650Z,100936.41
2022-11-28T16:05:33.542Z,100937.58
2022-11-28T16:08:40.595Z,100937.44
2022-11-28T16:11:47.375Z,100934.80
2022-11-28T16:14:58.706Z,100935.27
2022-11-28T16:18:04.148Z,100937.23
2022-11-28T16:21:12.559Z,100935.86
2022-11-28T16:24:25.237Z,100940.69
2022-11-28T16:27:34.856Z,100941.36
2022-11-28T16:30:43.551Z,100945.59
2022-11-28T16:33:50.364Z,100941.61
2022-11-28T16:36:57.086Z,100943.38
2022-11-28T16:40:04.729Z,100948.52
2022-11-28T16:43:19.963Z,100954.33
2022-11-28T16:46:27.189Z,100954.80
2022-11-28T16:49:34.855Z,100949.23
2022-11-28T16:52:45.723Z,100946.24
2022-11-28T16:55:51.164Z,100946.00
2022-11-28T16:59:00.115Z,100944.55
2022-11-28T17:02:13.396Z,100947.44
2022-11-28T17:05:20.306Z,100945.23
2022-11-28T17:08:30.280Z,100940.36
2022-11-28T17:11:37.325Z,100937.80
2022-11-28T17:14:44.115Z,100936.02
2022-11-28T17:17:49.639Z,100927.85
2022-11-28T17:20:55.238Z,100933.11
2022-11-28T17:24:00.903Z,100927.48
2022-11-28T17:27:08.731Z,100932.47
2022-11-28T17:30:21.439Z,100929.39
2022-11-28T17:33:27.187Z,100928.90
2022-11-28T17:36:32.775Z,100928.15
2022-11-28T17:39:38.379Z,100932.48
2022-11-28T17:42:43.767Z,100925.88
2022-11-28T17:45:51.293Z,100923.24
2022-11-28T17:48:59.178Z,100921.70
2022-11-28T17:52:04.639Z,100923.53
2022-11-28T17:55:10.441Z,100922.20
2022-11-28T17:58:22.182Z,100925.02
2022-11-28T18:01:29.920Z,100922.34
2022-11-28T18:04:38.293Z,100925.17
2022-11-28T18:07:43.768Z,100927.36
2022-11-28T18:10:52.103Z,100928.09
2022-11-28T18:13:59.006Z,100921.58
2022-11-28T18:17:04.560Z,100924.99
2022-11-28T18:20:11.298Z,100926.90
2022-11-28T18:23:16.894Z,100927.69
2022-11-28T18:26:24.050Z,100931.39
2022-11-28T18:29:30.796Z,100930.04
2022-11-28T18:32:36.604Z,100929.87
2022-11-28T18:35:42.816Z,100924.11
2022-11-28T18:38:48.314Z,100923.35
2022-11-28T18:41:56.546Z,100920.08
2022-11-28T18:45:02.036Z,100920.80
2022-11-28T18:48:07.807Z,100916.71
2022-11-28T18:51:14.555Z,100916.29
2022-11-28T18:54:21.543Z,100922.92
2022-11-28T18:57:31.500Z,100919.44
2022-11-28T19:00:36.872Z,100921.90
2022-11-28T19:03:43.224Z,100922.70
2022-11-28T19:06:48.766Z,100918.13
2022-11-28T19:09:54.536Z,100919.36
2022-11-28T19:12:59.805Z,100924.36
2022-11-28T19:16:07.586Z,100920.36
2022-11-28T19:19:13.115Z,100922.77
2022-11-28T19:22:18.380Z,100922.28
2022-11-28T19:25:24.001Z,100925.52
2022-11-28T19:28:29.831Z,100926.20
2022-11-28T19:31:36.666Z,100918.52
2022-11-28T19:34:42.674Z,100918.95
2022-11-28T19:37:48.395Z,100918.19
2022-11-28T19:40:53.878Z,100918.56
2022-11-28T19:43:59.621Z,100918.56
2022-11-28T19:47:07.009Z,100920.11
2022-11-28T19:50:13.003Z,100916.66
2022-11-28T19:53:18.673Z,100916.59
2022-11-28T19:56:24.186Z,100917.31
2022-11-28T19:59:31.393Z,100918.00
2022-11-28T20:02:39.057Z,100918.02
2022-11-28T20:05:44.677Z,100922.23
2022-11-28T20:08:50.563Z,100918.37
2022-11-28T20:11:56.056Z,100916.98
2022-11-28T20:15:04.910Z,100916.04
2022-11-28T20:18:10.422Z,100919.17
2022-11-28T20:21:17.320Z,100917.38
2022-11-28T20:24:23.031Z,100915.98
2022-11-28T20:27:28.738Z,100919.42
2022-11-28T20:30:34.114Z,100917.58
2022-11-28T20:33:39.443Z,100912.50
2022-11-28T20:36:45.028Z,100911.86
2022-11-28T20:39:50.686Z,100912.92
2022-11-28T20:42:56.177Z,100913.41
2022-11-28T20:46:04.838Z,100910.96
2022-11-28T20:49:11.169Z,100910.14
2022-11-28T20:52:16.410Z,100909.17
2022-11-28T20:55:23.139Z,100908.14
2022-11-28T20:58:28.490Z,100908.05
2022-11-28T21:01:35.350Z,100906.48
2022-11-28T21:04:40.933Z,100908.38
2022-11-28T21:07:46.293Z,100902.66
2022-11-28T21:10:51.867Z,100903.70
2022-11-28T21:13:57.133Z,100905.32
2022-11-28T21:17:02.518Z,100905.91
2022-11-28T21:20:09.620Z,100909.50
2022-11-28T21:23:15.600Z,100911.80
2022-11-28T21:26:27.393Z,100911.09
2022-11-28T21:29:36.245Z,100907.77
2022-11-28T21:32:41.722Z,100906.85
2022-11-28T21:35:46.990Z,100907.48
2022-11-28T21:38:52.681Z,100906.90
2022-11-28T21:41:58.086Z,100906.70
2022-11-28T21:45:03.680Z,100909.29
2022-11-28T21:48:09.203Z,100907.27
2022-11-28T21:51:17.571Z,100904.61
2022-11-28T21:54:23.091Z,100908.94
2022-11-28T21:57:28.529Z,100906.28
2022-11-28T22:00:52.804Z,100906.05
2022-11-28T22:04:03.243Z,100904.63
2022-11-28T22:07:09.849Z,100899.94
2022-11-28T22:10:15.197Z,100899.80
2022-11-28T22:13:20.539Z,100899.06
2022-11-28T22:16:27.293Z,100903.56
2022-11-28T22:19:32.861Z,100898.09
2022-11-28T22:22:38.454Z,100906.33
2022-11-28T22:25:52.518Z,100901.89
2022-11-28T22:28:58.928Z,100900.76
2022-11-28T22:32:04.531Z,100898.80
2022-11-28T22:35:11.061Z,100901.14
2022-11-28T22:38:17.903Z,100906.41
2022-11-28T22:41:28.293Z,100902.46
2022-11-28T22:44:36.955Z,100904.91
2022-11-28T22:47:42.418Z,100903.80
2022-11-28T22:50:47.882Z,100901.00
2022-11-28T22:53:55.387Z,100905.65
2022-11-28T22:57:02.675Z,100911.45
2022-11-28T23:00:09.815Z,100909.88
2022-11-28T23:03:15.408Z,100908.20
2022-11-28T23:06:23.615Z,100907.83
2022-11-28T23:09:32.963Z,100905.66
2022-11-28T23:12:38.600Z,100908.77
2022-11-28T23:15:48.442Z,100908.40
2022-11-28T23:18:58.131Z,100901.96
2022-11-28T23:22:04.805Z,100903.79
2022-11-28T23:25:12.578Z,100902.85
2022-11-28T23:28:18.115Z,100896.92
2022-11-28T23:31:26.317Z,100897.10
2022-11-28T23:34:33.142Z,100896.61
2022-11-28T23:37:40.430Z,100897.70
2022-11-28T23:40:45.983Z,100897.48
2022-11-28T23:43:51.507Z,100896.55
2022-11-28T23:46:59.419Z,100895.72
2022-11-28T23:50:08.388Z,100895.23
2022-11-28T23:53:13.888Z,100896.23
2022-11-28T23:56:20.505Z,100893.05
2022-11-28T23:59:25.871Z,100895.91
